Time;durP1;ratioP1;P1;durP2;ratioP2;P2;SDS_P1;SDS_P2;PMS_P1;PMS_P2;Temp;Humidity;BMP_temperature;BMP_pressure;BME280_temperature;BME280_humidity;BME280_pressure;Samples;Min_cycle;Max_cycle;Signal;HPM_P1;HPM_P2
2021/07/28 00:01:32;;;;;;;10.50;9.38;;;;;;;20.75;70.76;100403.24;1749513;80;25921;-77
2021/07/28 00:04:03;;;;;;;12.75;9.90;;;;;;;20.68;70.92;100400.44;1700616;80;26554;-77
2021/07/28 00:06:33;;;;;;;14.05;9.58;;;;;;;20.58;71.09;100397.09;1713745;79;25808;-77
2021/07/28 00:09:00;;;;;;;13.72;9.58;;;;;;;20.51;71.08;100399.19;1777760;80;27449;-77
2021/07/28 00:11:31;;;;;;;12.07;8.58;;;;;;;20.46;71.38;100394.23;1725804;80;26716;-78
2021/07/28 00:14:00;;;;;;;11.73;8.23;;;;;;;20.46;71.64;100400.51;1727837;80;25830;-77
2021/07/28 00:16:27;;;;;;;11.53;8.28;;;;;;;20.43;71.70;100394.20;1734808;80;25784;-77
2021/07/28 00:24:30;;;;;;;13.15;8.43;;;;;;;20.39;71.96;100384.09;1718705;80;26482;-77
2021/07/28 00:26:54;;;;;;;8.45;7.55;;;;;;;20.39;72.02;100382.20;1754455;80;25912;-77
2021/07/28 00:29:21;;;;;;;12.10;8.78;;;;;;;20.38;71.82;100390.63;1752512;80;25885;-77
2021/07/28 00:31:48;;;;;;;9.75;8.28;;;;;;;20.31;71.87;100384.02;1756501;79;25825;-77
2021/07/28 00:34:15;;;;;;;10.32;7.25;;;;;;;20.26;71.83;100381.77;1696621;81;27723;-77
2021/07/28 00:36:42;;;;;;;13.95;8.23;;;;;;;20.22;71.84;100381.99;1729920;81;25931;-77
2021/07/28 00:39:09;;;;;;;11.65;8.75;;;;;;;20.16;72.04;100369.39;1761057;81;25826;-77
2021/07/28 00:41:42;;;;;;;9.83;7.75;;;;;;;20.09;72.20;100375.55;1730702;81;25982;-77
2021/07/28 00:44:09;;;;;;;12.23;9.25;;;;;;;20.03;72.29;100372.49;1709154;81;25826;-77
2021/07/28 00:46:36;;;;;;;12.15;9.80;;;;;;;20.00;72.53;100375.17;1697637;81;28264;-77
2021/07/28 00:49:05;;;;;;;12.10;9.00;;;;;;;19.97;72.72;100381.14;1756442;81;25755;-77
2021/07/28 00:51:35;;;;;;;12.15;9.25;;;;;;;19.94;72.92;100378.38;1696191;81;25816;-77
2021/07/28 00:54:02;;;;;;;13.70;9.20;;;;;;;19.89;72.94;100375.59;1718211;81;26267;-77
2021/07/28 00:56:30;;;;;;;12.98;8.93;;;;;;;19.86;73.15;100376.64;1713856;81;26173;-77
2021/07/28 00:58:58;;;;;;;13.75;9.28;;;;;;;19.83;73.21;100374.42;1752444;81;27056;-77
2021/07/28 01:01:26;;;;;;;12.85;10.00;;;;;;;19.82;73.31;100374.16;1696414;81;25890;-77
2021/07/28 01:03:53;;;;;;;18.23;9.75;;;;;;;19.82;73.36;100383.10;1688599;81;26038;-77
2021/07/28 01:06:21;;;;;;;12.98;8.83;;;;;;;19.82;73.45;100388.54;1695080;81;25812;-77
2021/07/28 01:08:48;;;;;;;12.40;9.83;;;;;;;19.83;73.50;100391.55;1746851;81;25699;-77
2021/07/28 01:11:25;;;;;;;14.73;9.15;;;;;;;19.82;73.49;100392.62;1719746;80;28340;-77
2021/07/28 01:13:52;;;;;;;14.30;9.03;;;;;;;19.78;73.51;100387.97;1707567;82;25729;-77
2021/07/28 01:16:25;;;;;;;10.80;9.05;;;;;;;19.74;73.55;100390.34;1686331;82;26627;-77
2021/07/28 01:18:53;;;;;;;11.93;9.00;;;;;;;19.73;73.58;100390.07;1776562;80;26485;-77
2021/07/28 01:21:21;;;;;;;12.78;10.08;;;;;;;19.72;73.70;100393.02;1670347;82;25755;-77
2021/07/28 01:23:50;;;;;;;13.10;9.38;;;;;;;19.68;73.88;100389.99;1700278;82;27577;-77
2021/07/28 01:26:18;;;;;;;12.55;9.85;;;;;;;19.65;73.90;100385.05;1741718;80;26449;-77
2021/07/28 01:28:45;;;;;;;10.95;8.48;;;;;;;19.63;73.98;100388.55;1730253;81;26493;-77
2021/07/28 01:31:15;;;;;;;12.28;8.85;;;;;;;19.61;73.85;100391.27;1741968;81;25875;-77
2021/07/28 01:33:45;;;;;;;10.00;8.00;;;;;;;19.59;73.91;100386.05;1697322;81;25905;-77
2021/07/28 01:36:19;;;;;;;12.93;8.83;;;;;;;19.58;73.99;100391.75;1697976;81;28122;-77
2021/07/28 01:38:48;;;;;;;12.73;9.55;;;;;;;19.53;73.77;100388.42;1755465;80;25873;-77
2021/07/28 01:41:15;;;;;;;11.97;9.13;;;;;;;19.53;73.96;100394.38;1714562;82;26556;-77
2021/07/28 01:43:43;;;;;;;11.40;9.38;;;;;;;19.50;74.10;100397.09;1715666;81;25773;-77
2021/07/28 01:46:10;;;;;;;15.85;9.70;;;;;;;19.46;74.22;100397.84;1698849;81;25971;-77
2021/07/28 01:48:37;;;;;;;16.70;9.75;;;;;;;19.40;74.35;100390.13;1755583;81;27128;-77
2021/07/28 01:51:04;;;;;;;13.55;9.08;;;;;;;19.37;74.52;100394.72;1722607;81;25958;-77
2021/07/28 01:53:31;;;;;;;15.05;9.88;;;;;;;19.34;74.60;100397.06;1677969;82;25607;-77
2021/07/28 01:55:59;;;;;;;12.23;8.48;;;;;;;19.32;74.68;100390.52;1693191;80;25437;-77
2021/07/28 01:58:26;;;;;;;12.03;9.25;;;;;;;19.30;74.67;100391.31;1761607;81;25845;-77
2021/07/28 02:00:53;;;;;;;10.78;8.40;;;;;;;19.29;74.63;100392.92;1722630;81;28371;-77
2021/07/28 02:03:20;;;;;;;10.08;8.75;;;;;;;19.27;74.67;100387.72;1650851;82;25889;-77
2021/07/28 02:05:48;;;;;;;12.53;8.23;;;;;;;19.25;74.63;100392.58;1699358;81;25882;-77
2021/07/28 02:08:17;;;;;;;11.97;8.20;;;;;;;19.21;74.50;100389.55;1760262;81;25835;-77
2021/07/28 02:10:46;;;;;;;9.90;7.62;;;;;;;19.20;74.62;100385.73;1692764;81;26425;-77
2021/07/28 02:13:15;;;;;;;12.15;8.55;;;;;;;19.16;74.76;100377.80;1702321;80;28344;-77
2021/07/28 02:15:43;;;;;;;13.48;8.83;;;;;;;19.13;74.79;100375.56;1746939;81;25860;-77
2021/07/28 02:18:10;;;;;;;14.63;8.88;;;;;;;19.13;75.02;100384.54;1739081;81;25873;-77
2021/07/28 02:20:38;;;;;;;12.93;8.23;;;;;;;19.10;75.06;100376.88;1719692;81;26098;-77
2021/07/28 02:23:05;;;;;;;14.83;8.35;;;;;;;19.05;74.90;100375.43;1691738;82;25745;-77
2021/07/28 02:25:33;;;;;;;10.72;8.25;;;;;;;19.00;74.93;100374.02;1693095;81;28226;-77
2021/07/28 02:28:00;;;;;;;12.33;8.30;;;;;;;18.95;74.96;100371.73;1752489;80;25720;-77
2021/07/28 02:30:27;;;;;;;8.45;7.33;;;;;;;18.88;74.90;100371.09;1735188;81;25854;-77
2021/07/28 02:32:54;;;;;;;13.15;8.78;;;;;;;18.83;74.93;100366.92;1682515;81;25999;-77
2021/07/28 02:35:22;;;;;;;11.63;8.78;;;;;;;18.75;75.00;100370.05;1724002;81;25843;-77
2021/07/28 02:37:49;;;;;;;15.38;8.30;;;;;;;18.72;75.24;100371.89;1736984;82;27620;-77
2021/07/28 02:40:19;;;;;;;13.30;8.05;;;;;;;18.70;75.39;100374.03;1722091;81;25888;-77
2021/07/28 02:42:47;;;;;;;11.63;7.83;;;;;;;18.68;75.46;100375.63;1702876;80;25904;-77
2021/07/28 02:45:15;;;;;;;8.98;8.08;;;;;;;18.67;75.63;100377.25;1716830;81;26099;-77
2021/07/28 02:47:42;;;;;;;12.28;8.88;;;;;;;18.65;75.63;100378.83;1736175;82;25831;-77
2021/07/28 02:50:10;;;;;;;9.90;8.28;;;;;;;18.62;75.64;100382.57;1692518;81;28210;-77
2021/07/28 02:52:37;;;;;;;9.35;8.40;;;;;;;18.57;75.70;100381.95;1699083;81;25753;-77
2021/07/28 02:55:07;;;;;;;12.50;9.08;;;;;;;18.55;75.79;100386.79;1704054;81;25890;-77
2021/07/28 02:57:36;;;;;;;12.68;7.95;;;;;;;18.54;75.92;100390.55;1712336;82;26684;-77
2021/07/28 03:00:08;;;;;;;11.75;8.43;;;;;;;18.52;76.02;100394.05;1722862;81;25903;-77
2021/07/28 03:02:36;;;;;;;11.53;8.65;;;;;;;18.51;76.06;100392.94;1709431;80;27602;-77
2021/07/28 03:05:05;;;;;;;13.48;8.65;;;;;;;18.50;76.37;100393.47;1698508;81;25855;-77
2021/07/28 03:07:35;;;;;;;14.00;8.80;;;;;;;18.52;76.55;100396.76;1708520;82;26384;-77
2021/07/28 03:10:03;;;;;;;11.30;8.98;;;;;;;18.52;76.69;100394.60;1755808;81;25854;-77
2021/07/28 03:12:30;;;;;;;15.80;9.33;;;;;;;18.50;76.92;100394.83;1688929;81;26025;-77
2021/07/28 03:14:57;;;;;;;12.90;9.88;;;;;;;18.53;77.15;100392.16;1726625;81;27542;-77
2021/07/28 03:17:25;;;;;;;13.78;8.93;;;;;;;18.55;77.49;100394.09;1739607;81;25870;-77
2021/07/28 03:19:52;;;;;;;9.48;8.30;;;;;;;18.57;77.50;100398.75;1719287;81;25877;-77
2021/07/28 03:22:19;;;;;;;11.12;8.33;;;;;;;18.57;77.73;100386.02;1689328;81;25769;-77
2021/07/28 03:24:46;;;;;;;10.98;8.25;;;;;;;18.58;77.71;100393.63;1696343;81;26473;-77
2021/07/28 03:27:13;;;;;;;10.80;8.48;;;;;;;18.56;77.86;100384.91;1748071;81;27438;-77
2021/07/28 03:29:40;;;;;;;11.03;8.23;;;;;;;18.56;78.03;100383.55;1727694;81;26715;-77
2021/07/28 03:32:08;;;;;;;8.28;7.42;;;;;;;18.57;78.00;100391.44;1679042;81;25958;-77
2021/07/28 03:34:36;;;;;;;9.88;8.13;;;;;;;18.57;77.86;100394.16;1698003;81;26130;-77
2021/07/28 03:37:04;;;;;;;11.70;7.97;;;;;;;18.57;77.88;100394.16;1756295;81;25744;-77
2021/07/28 03:39:31;;;;;;;10.38;8.20;;;;;;;18.57;78.01;100390.08;1713049;81;28139;-77
2021/07/28 03:41:58;;;;;;;14.00;9.60;;;;;;;18.60;78.11;100390.13;1669374;82;25954;-77
2021/07/28 03:44:25;;;;;;;12.85;10.13;;;;;;;18.67;78.36;100389.45;1740038;81;25902;-77
2021/07/28 03:46:52;;;;;;;16.42;11.40;;;;;;;18.75;78.73;100387.16;1753238;80;26173;-77
2021/07/28 03:49:19;;;;;;;13.30;10.60;;;;;;;18.82;78.93;100384.30;1731861;81;25947;-77
2021/07/28 03:51:46;;;;;;;13.95;10.15;;;;;;;18.88;79.12;100385.47;1687383;82;27525;-77
2021/07/28 03:54:13;;;;;;;13.30;10.32;;;;;;;18.95;79.05;100391.56;1734380;81;25842;-77
2021/07/28 03:56:40;;;;;;;11.78;9.40;;;;;;;19.01;79.09;100382.98;1752342;80;25836;-77
2021/07/28 03:59:07;;;;;;;14.35;9.93;;;;;;;19.07;79.08;100389.61;1726398;81;25956;-77
2021/07/28 04:01:34;;;;;;;12.28;9.55;;;;;;;19.16;79.11;100386.74;1700725;80;25919;-77
2021/07/28 04:04:03;;;;;;;15.72;10.60;;;;;;;19.20;79.08;100379.74;1727241;79;28129;-77
2021/07/28 04:06:30;;;;;;;14.68;10.28;;;;;;;19.28;79.17;100381.77;1760115;80;25978;-77
2021/07/28 04:08:57;;;;;;;15.23;10.50;;;;;;;19.40;79.38;100383.34;1724351;80;26550;-77
2021/07/28 04:11:24;;;;;;;12.55;9.58;;;;;;;19.49;79.12;100386.45;1668588;82;26503;-77
2021/07/28 04:13:51;;;;;;;13.98;10.05;;;;;;;19.56;79.30;100390.66;1693362;81;25917;-77
2021/07/28 04:16:19;;;;;;;13.53;10.60;;;;;;;19.63;79.12;100389.91;1729807;80;27561;-77
2021/07/28 04:18:46;;;;;;;17.12;10.23;;;;;;;19.72;79.05;100395.20;1721541;81;26529;-77
2021/07/28 04:21:13;;;;;;;15.13;10.48;;;;;;;19.79;79.04;100399.10;1683162;80;25717;-77
2021/07/28 04:23:40;;;;;;;11.85;10.38;;;;;;;19.86;79.13;100398.39;1707640;81;26309;-76
2021/07/28 04:26:06;;;;;;;12.75;9.65;;;;;;;19.92;79.22;100394.66;1749955;81;25726;-77
2021/07/28 04:28:33;;;;;;;15.32;10.68;;;;;;;19.98;79.15;100393.64;1714387;82;28295;-77
2021/07/28 04:31:00;;;;;;;13.45;10.32;;;;;;;20.02;78.98;100388.54;1682748;81;26519;-77
2021/07/28 04:33:28;;;;;;;12.78;10.30;;;;;;;20.10;79.04;100393.00;1724001;81;25810;-77
2021/07/28 04:35:54;;;;;;;15.38;10.55;;;;;;;20.19;78.98;100386.56;1761969;81;25857;-77
2021/07/28 04:38:22;;;;;;;15.43;9.93;;;;;;;20.26;79.07;100398.08;1716600;81;25932;-77
2021/07/28 04:40:51;;;;;;;13.08;10.00;;;;;;;20.35;79.09;100399.28;1692372;82;27548;-77
2021/07/28 04:43:18;;;;;;;10.85;9.75;;;;;;;20.44;79.29;100393.67;1684659;82;25816;-77
2021/07/28 04:45:45;;;;;;;14.85;9.90;;;;;;;20.52;79.23;100394.04;1742072;81;25812;-77
2021/07/28 04:48:12;;;;;;;10.88;9.48;;;;;;;20.61;79.00;100390.31;1723163;81;26276;-77
2021/07/28 04:50:39;;;;;;;12.07;9.18;;;;;;;20.69;78.93;100385.76;1695059;81;25990;-77
2021/07/28 04:53:06;;;;;;;10.45;8.83;;;;;;;20.76;78.75;100383.09;1726162;80;28272;-77
2021/07/28 04:55:33;;;;;;;13.25;10.05;;;;;;;20.85;78.78;100384.80;1717688;80;25820;-77
2021/07/28 04:58:00;;;;;;;11.80;9.15;;;;;;;20.93;78.92;100383.52;1775799;80;25746;-77
2021/07/28 05:00:27;;;;;;;12.35;9.20;;;;;;;21.03;79.02;100381.73;1773240;79;25816;-77
2021/07/28 05:02:54;;;;;;;11.60;9.28;;;;;;;21.16;78.90;100375.02;1641111;81;25584;-77
2021/07/28 05:05:21;;;;;;;16.42;9.78;;;;;;;21.28;78.71;100377.00;1684560;81;27151;-77
2021/07/28 05:07:48;;;;;;;13.83;9.33;;;;;;;21.39;78.71;100379.55;1758469;81;25974;-77
2021/07/28 05:10:16;;;;;;;10.50;9.13;;;;;;;21.56;78.96;100381.27;1721006;81;26626;-77
2021/07/28 05:12:43;;;;;;;9.38;8.28;;;;;;;21.68;78.70;100370.45;1674923;80;25753;-77
2021/07/28 05:15:11;;;;;;;10.08;7.80;;;;;;;21.78;78.71;100366.95;1765407;78;25862;-78
2021/07/28 05:17:38;;;;;;;9.13;7.60;;;;;;;21.86;78.72;100370.02;1737343;81;28362;-77
2021/07/28 05:20:06;;;;;;;9.53;8.40;;;;;;;21.92;78.66;100373.04;1722571;81;25791;-77
2021/07/28 05:22:33;;;;;;;10.53;7.90;;;;;;;22.02;78.56;100366.81;1680944;81;26652;-77
2021/07/28 05:25:00;;;;;;;11.95;8.08;;;;;;;22.12;78.58;100368.20;1689931;80;26117;-78
2021/07/28 05:27:28;;;;;;;9.10;7.65;;;;;;;22.23;78.51;100378.07;1732977;81;25889;-77
2021/07/28 05:29:55;;;;;;;11.30;8.35;;;;;;;22.29;78.20;100368.80;1777575;80;28230;-78
2021/07/28 05:32:23;;;;;;;10.78;7.87;;;;;;;22.38;77.78;100367.20;1733411;81;25875;-77
2021/07/28 05:34:50;;;;;;;8.63;7.45;;;;;;;22.46;77.75;100366.66;1701372;81;25849;-77
2021/07/28 05:37:18;;;;;;;11.22;8.05;;;;;;;22.53;77.66;100365.03;1758849;81;25857;-77
2021/07/28 05:39:46;;;;;;;11.18;8.58;;;;;;;22.64;77.42;100370.28;1742815;81;25773;-77
2021/07/28 05:42:13;;;;;;;9.03;8.08;;;;;;;22.77;77.05;100368.93;1713706;80;28227;-77
2021/07/28 05:44:41;;;;;;;9.78;7.97;;;;;;;22.89;77.11;100369.47;1720656;80;25797;-77
2021/07/28 05:47:08;;;;;;;12.82;8.28;;;;;;;23.03;76.70;100368.39;1764420;80;26528;-77
2021/07/28 05:49:35;;;;;;;9.78;7.95;;;;;;;23.16;76.72;100365.90;1749759;81;25771;-77
2021/07/28 05:52:02;;;;;;;12.23;7.37;;;;;;;23.28;76.54;100365.08;1670502;81;26001;-77
2021/07/28 05:54:29;;;;;;;9.40;7.17;;;;;;;23.35;76.18;100371.09;1730848;81;28192;-77
2021/07/28 05:56:56;;;;;;;9.60;6.97;;;;;;;23.40;76.19;100371.09;1728322;82;25763;-77
2021/07/28 05:59:24;;;;;;;11.63;7.45;;;;;;;23.43;75.94;100371.92;1736887;80;25720;-77
2021/07/28 06:01:51;;;;;;;8.40;7.40;;;;;;;23.45;75.99;100362.07;1677583;82;26103;-78
2021/07/28 06:04:18;;;;;;;9.43;7.05;;;;;;;23.49;75.88;100364.52;1704405;81;25792;-78
2021/07/28 06:06:45;;;;;;;7.25;6.55;;;;;;;23.53;75.71;100363.69;1731139;82;27455;-77
2021/07/28 06:09:12;;;;;;;11.57;7.10;;;;;;;23.58;75.76;100364.23;1768192;80;26418;-77
2021/07/28 06:11:39;;;;;;;10.23;7.55;;;;;;;23.59;74.89;100359.84;1678669;81;25789;-77
2021/07/28 06:14:06;;;;;;;9.63;8.10;;;;;;;23.63;74.95;100358.19;1670956;82;26411;-77
2021/07/28 06:16:34;;;;;;;8.68;7.78;;;;;;;23.65;74.45;100354.63;1772237;80;25972;-77
2021/07/28 06:19:01;;;;;;;8.85;6.60;;;;;;;23.69;74.69;100359.80;1739351;82;27616;-77
2021/07/28 06:21:28;;;;;;;11.28;7.85;;;;;;;23.73;74.86;100352.70;1692989;81;25851;-77
2021/07/28 06:23:59;;;;;;;9.95;7.62;;;;;;;23.78;75.01;100353.20;1690570;81;25853;-77
2021/07/28 06:26:24;;;;;;;9.10;7.92;;;;;;;23.82;75.39;100352.95;1749888;81;26452;-77
2021/07/28 06:28:51;;;;;;;8.38;7.08;;;;;;;23.83;75.75;100351.00;1721313;81;25827;-77
2021/07/28 06:31:18;;;;;;;11.38;7.83;;;;;;;23.86;75.76;100355.93;1673102;82;27464;-77
2021/07/28 06:33:45;;;;;;;10.05;7.90;;;;;;;23.87;75.74;100359.74;1697670;82;25863;-77
2021/07/28 06:36:12;;;;;;;13.88;8.08;;;;;;;23.91;76.21;100360.82;1757987;80;25705;-77
2021/07/28 06:38:39;;;;;;;10.18;8.30;;;;;;;23.96;76.63;100364.09;1738081;82;26578;-77
2021/07/28 06:41:06;;;;;;;11.12;8.15;;;;;;;23.99;76.23;100366.27;1684469;81;25972;-77
2021/07/28 06:43:33;;;;;;;12.13;8.23;;;;;;;24.03;76.41;100365.44;1697744;81;27414;-78
2021/07/28 06:46:00;;;;;;;10.70;8.55;;;;;;;24.03;76.35;100362.70;1753584;80;25881;-77
2021/07/28 06:48:27;;;;;;;8.88;7.97;;;;;;;24.04;76.41;100362.98;1728565;81;26002;-77
2021/07/28 06:50:54;;;;;;;11.38;8.68;;;;;;;24.07;76.46;100361.06;1674610;81;26182;-77
2021/07/28 06:53:21;;;;;;;8.98;7.78;;;;;;;24.14;76.92;100364.87;1700624;81;25919;-77
2021/07/28 06:55:52;;;;;;;9.53;7.55;;;;;;;24.14;76.31;100357.48;1762885;81;28231;-77
2021/07/28 06:58:19;;;;;;;;;;;;;;;24.16;76.50;100355.28;1763471;81;25933;-77
2021/07/28 07:00:47;;;;;;;10.20;8.55;;;;;;;24.19;76.78;100358.80;1711309;81;26519;-77
2021/07/28 07:03:14;;;;;;;10.82;7.28;;;;;;;24.20;76.90;100357.72;1696947;81;25944;-77
2021/07/28 07:05:42;;;;;;;7.65;6.80;;;;;;;24.23;76.53;100357.14;1761614;81;25761;-77
2021/07/28 07:08:09;;;;;;;12.15;7.12;;;;;;;24.25;76.51;100359.61;1692703;81;28265;-77
2021/07/28 07:10:37;;;;;;;8.48;6.60;;;;;;;24.24;76.51;100356.59;1721355;81;26512;-77
2021/07/28 07:13:05;;;;;;;9.95;7.45;;;;;;;24.26;76.55;100353.84;1708280;81;25872;-77
2021/07/28 07:15:32;;;;;;;8.95;6.80;;;;;;;24.27;76.47;100350.56;1756947;80;25855;-77
2021/07/28 07:17:59;;;;;;;7.78;6.58;;;;;;;24.27;76.69;100353.30;1712052;81;25931;-77
2021/07/28 07:20:26;;;;;;;9.35;7.25;;;;;;;24.29;76.91;100355.20;1728052;81;27561;-77
2021/07/28 07:22:54;;;;;;;8.98;6.95;;;;;;;24.30;76.89;100354.92;1711836;80;25916;-78
2021/07/28 07:25:21;;;;;;;8.93;6.58;;;;;;;24.30;76.77;100349.44;1732685;81;25767;-77
2021/07/28 07:27:48;;;;;;;9.85;7.00;;;;;;;24.32;76.96;100345.05;1695953;81;25758;-77
2021/07/28 07:30:15;;;;;;;9.68;6.87;;;;;;;24.36;76.88;100350.22;1699813;80;25838;-77
2021/07/28 07:32:42;;;;;;;8.03;7.22;;;;;;;24.40;76.96;100345.27;1704873;81;27795;-77
2021/07/28 07:35:09;;;;;;;7.33;6.62;;;;;;;24.45;77.09;100348.52;1757496;81;26501;-77
2021/07/28 07:37:36;;;;;;;7.95;7.10;;;;;;;24.47;76.78;100350.42;1686815;81;25905;-77
2021/07/28 07:40:05;;;;;;;9.30;7.37;;;;;;;24.51;76.95;100348.20;1708435;81;25801;-77
2021/07/28 07:42:33;;;;;;;8.20;6.67;;;;;;;24.56;77.01;100349.27;1684435;81;44602;-77
2021/07/28 07:45:00;;;;;;;12.15;7.12;;;;;;;24.62;77.04;100342.65;1762044;81;27416;-77
2021/07/28 07:47:27;;;;;;;9.33;7.05;;;;;;;24.66;77.20;100345.91;1759318;81;25700;-77
2021/07/28 07:49:54;;;;;;;9.03;7.60;;;;;;;24.71;77.02;100338.20;1681714;81;26226;-78
2021/07/28 07:52:21;;;;;;;10.65;7.17;;;;;;;24.79;77.39;100338.98;1682667;81;26141;-78
2021/07/28 07:54:48;;;;;;;10.08;6.85;;;;;;;24.87;77.33;100336.45;1758345;81;25740;-77
2021/07/28 07:57:15;;;;;;;9.70;6.40;;;;;;;24.96;76.44;100333.91;1755344;81;28194;-78
2021/07/28 07:59:42;;;;;;;7.45;6.35;;;;;;;25.05;75.33;100328.08;1681433;82;25814;-78
2021/07/28 08:02:09;;;;;;;9.48;6.70;;;;;;;25.12;74.36;100325.28;1666068;81;26270;-77
2021/07/28 08:04:36;;;;;;;10.82;7.03;;;;;;;25.19;74.53;100321.63;1775721;80;25722;-78
2021/07/28 08:07:03;;;;;;;8.48;5.72;;;;;;;25.28;74.73;100320.44;1736688;82;26431;-78
2021/07/28 08:09:30;;;;;;;7.35;6.62;;;;;;;25.40;74.71;100324.17;1708003;81;28235;-78
2021/07/28 08:11:58;;;;;;;7.37;6.20;;;;;;;25.47;73.97;100321.36;1716448;82;25998;-78
2021/07/28 08:14:24;;;;;;;11.15;6.55;;;;;;;25.54;73.59;100324.58;1757787;81;25803;-77
2021/07/28 08:16:52;;;;;;;9.28;6.47;;;;;;;25.62;74.15;100314.33;1752321;81;26092;-77
2021/07/28 08:19:19;;;;;;;9.43;6.12;;;;;;;25.73;73.57;100317.77;1683215;81;25823;-77
2021/07/28 08:21:47;;;;;;;8.38;6.78;;;;;;;25.81;71.62;100317.92;1714666;82;27522;-77
2021/07/28 08:24:16;;;;;;;9.33;6.00;;;;;;;25.90;71.67;100315.34;1699173;81;26542;-78
2021/07/28 08:26:44;;;;;;;6.40;5.50;;;;;;;25.98;70.87;100313.34;1758295;81;25744;-78
2021/07/28 08:29:11;;;;;;;9.38;6.00;;;;;;;26.09;70.62;100315.42;1725526;81;25805;-77
2021/07/28 08:31:38;;;;;;;11.20;7.03;;;;;;;26.17;70.44;100315.58;1679298;81;26617;-77
2021/07/28 08:34:05;;;;;;;9.20;6.70;;;;;;;26.22;69.67;100314.11;1704635;81;27578;-78
2021/07/28 08:36:32;;;;;;;10.88;7.35;;;;;;;26.34;69.76;100308.19;1754506;81;25769;-78
2021/07/28 08:38:59;;;;;;;11.90;6.83;;;;;;;26.40;69.62;100306.44;1714928;82;25891;-78
2021/07/28 08:41:28;;;;;;;10.03;7.10;;;;;;;26.49;69.39;100310.16;1674680;81;25885;-78
2021/07/28 08:43:58;;;;;;;9.50;6.40;;;;;;;26.60;69.83;100310.81;1749565;81;25792;-78
2021/07/28 08:46:27;;;;;;;9.28;7.05;;;;;;;26.71;69.13;100303.45;1748645;80;27539;-78
2021/07/28 08:48:55;;;;;;;9.78;6.45;;;;;;;26.80;69.58;100304.16;1724543;81;26491;-77
2021/07/28 08:51:29;;;;;;;11.93;6.22;;;;;;;26.87;69.39;100305.42;1684259;81;26620;-78
2021/07/28 08:53:56;;;;;;;11.28;6.35;;;;;;;26.92;69.13;100299.03;1653736;84;25944;-78
2021/07/28 08:56:24;;;;;;;10.90;6.15;;;;;;;27.02;68.20;100294.72;1722551;82;25882;-78
2021/07/28 08:58:51;;;;;;;6.53;5.70;;;;;;;27.11;66.73;100295.66;1699828;82;27405;-78
2021/07/28 09:01:18;;;;;;;13.85;6.40;;;;;;;27.23;66.11;100288.55;1665647;82;25727;-78
2021/07/28 09:03:46;;;;;;;9.10;6.05;;;;;;;27.35;66.70;100293.59;1674678;82;25785;-78
2021/07/28 09:06:29;;;;;;;9.98;5.70;;;;;;;27.45;65.51;100292.83;1727004;82;26552;-78
2021/07/28 09:08:58;;;;;;;10.70;5.80;;;;;;;27.56;65.44;100294.81;1706093;82;25948;-77
2021/07/28 09:11:25;;;;;;;8.90;5.60;;;;;;;27.70;64.92;100296.16;1676197;82;28248;-78
2021/07/28 09:13:56;;;;;;;7.25;5.58;;;;;;;27.79;64.40;100289.64;1678933;82;25753;-78
2021/07/28 09:16:23;;;;;;;7.95;5.78;;;;;;;27.87;63.96;100283.41;1720136;82;26585;-77
2021/07/28 09:18:52;;;;;;;9.78;5.83;;;;;;;27.96;63.42;100284.31;1694662;82;25885;-77
2021/07/28 09:21:29;;;;;;;9.03;5.60;;;;;;;28.03;63.01;100288.88;1663200;82;25858;-76
2021/07/28 09:24:14;;;;;;;9.33;5.53;;;;;;;28.11;61.77;100289.52;1695351;82;27116;-77
2021/07/28 09:26:48;;;;;;;7.87;5.45;;;;;;;28.21;61.43;100281.01;1728991;82;26529;-77
2021/07/28 09:29:25;;;;;;;8.48;5.67;;;;;;;28.27;61.05;100280.34;1722576;82;25311;-77
2021/07/28 09:31:54;;;;;;;6.42;5.25;;;;;;;28.35;61.34;100275.46;1704813;82;25782;-77
2021/07/28 09:34:29;;;;;;;7.30;5.05;;;;;;;28.46;60.62;100281.54;1694637;82;25921;-78
2021/07/28 09:37:15;;;;;;;16.57;5.00;;;;;;;28.55;60.64;100274.16;1728306;82;27439;-77
2021/07/28 09:39:48;;;;;;;5.75;4.95;;;;;;;28.66;59.88;100275.54;1689435;82;25937;-77
2021/07/28 09:42:18;;;;;;;5.60;4.90;;;;;;;28.76;59.41;100274.72;1656771;82;25912;-77
2021/07/28 09:44:55;;;;;;;5.50;5.00;;;;;;;28.83;57.33;100265.45;1673642;82;26183;-78
2021/07/28 09:47:24;;;;;;;6.72;4.78;;;;;;;28.91;58.34;100273.53;1747365;80;25879;-77
2021/07/28 09:50:08;;;;;;;8.08;4.92;;;;;;;28.98;57.57;100263.67;1741313;80;27557;-78
2021/07/28 09:52:35;;;;;;;7.65;4.97;;;;;;;28.99;57.48;100275.52;1726493;81;26022;-77
2021/07/28 09:55:29;;;;;;;6.95;5.33;;;;;;;28.93;56.93;100271.27;1733583;80;25845;-77
2021/07/28 09:58:00;;;;;;;7.50;4.87;;;;;;;28.93;57.59;100264.37;1743537;81;26426;-77
2021/07/28 10:00:31;;;;;;;10.72;5.67;;;;;;;28.94;57.23;100258.54;1748723;80;26571;-78
2021/07/28 10:03:04;;;;;;;7.35;4.80;;;;;;;28.98;57.33;100258.16;1715956;81;27465;-78
2021/07/28 10:05:33;;;;;;;7.17;5.50;;;;;;;29.03;56.92;100263.28;1742353;80;25876;-77
2021/07/28 10:08:05;;;;;;;6.37;5.78;;;;;;;29.09;56.17;100257.31;1744162;80;25799;-78
2021/07/28 10:10:36;;;;;;;6.12;4.85;;;;;;;29.21;56.31;100262.28;1756367;80;25855;-77
2021/07/28 10:13:03;;;;;;;;;;;;;;;29.31;56.21;100261.98;1723619;80;25914;-77
2021/07/28 10:15:31;;;;;;;7.70;5.28;;;;;;;29.39;54.92;100259.81;1789853;78;27427;-77
2021/07/28 10:17:59;;;;;;;13.25;5.80;;;;;;;29.44;55.34;100254.98;1773760;80;25771;-77
2021/07/28 10:20:28;;;;;;;5.03;4.58;;;;;;;29.55;55.18;100251.36;1716583;80;26516;-78
2021/07/28 10:22:57;;;;;;;6.72;5.40;;;;;;;29.65;55.44;100246.34;1770319;80;25844;-78
2021/07/28 10:25:24;;;;;;;5.47;4.97;;;;;;;29.75;55.02;100241.11;1745037;80;25931;-78
2021/07/28 10:27:53;;;;;;;6.83;4.53;;;;;;;29.85;54.91;100240.82;1773364;80;28232;-77
2021/07/28 10:30:21;;;;;;;5.72;4.60;;;;;;;29.93;55.19;100240.01;1729832;81;26049;-77
2021/07/28 10:32:49;;;;;;;7.10;5.08;;;;;;;30.00;54.15;100242.30;1754781;79;25840;-77
2021/07/28 10:35:27;;;;;;;6.10;5.50;;;;;;;30.05;53.35;100235.20;1713923;81;25794;-78
2021/07/28 10:37:57;;;;;;;7.90;4.70;;;;;;;30.05;52.18;100231.06;1785981;80;25817;-78
2021/07/28 10:40:31;;;;;;;;;;;;;;;30.03;52.28;100233.34;1683743;81;27500;-77
2021/07/28 10:43:02;;;;;;;5.42;4.47;;;;;;;30.07;52.54;100232.95;1746586;80;26008;-77
2021/07/28 10:46:02;;;;;;;5.12;4.62;;;;;;;30.11;52.48;100234.72;1753289;81;25839;-77
2021/07/28 10:48:50;;;;;;;5.77;4.73;;;;;;;30.16;51.87;100226.28;1703068;82;25810;-78
2021/07/28 10:51:54;;;;;;;4.85;4.17;;;;;;;30.23;50.79;100225.80;1721406;81;25748;-76
2021/07/28 10:54:44;;;;;;;5.05;4.53;;;;;;;30.30;50.15;100231.65;1702088;81;27506;-77
2021/07/28 10:57:34;;;;;;;7.55;4.10;;;;;;;30.25;49.96;100230.42;1728538;81;25989;-76
2021/07/28 11:00:07;;;;;;;5.00;4.50;;;;;;;30.25;50.11;100227.09;1745986;81;25742;-76
2021/07/28 11:03:01;;;;;;;6.37;5.75;;;;;;;30.20;49.50;100226.43;1691839;82;25925;-76
2021/07/28 11:05:44;;;;;;;8.63;4.67;;;;;;;30.16;49.63;100233.75;1719283;81;25868;-77
2021/07/28 11:08:22;;;;;;;6.42;4.67;;;;;;;30.09;49.31;100229.30;1757285;80;27483;-78
2021/07/28 11:10:54;;;;;;;4.53;4.12;;;;;;;30.05;49.10;100226.36;1717965;80;25976;-77
2021/07/28 11:13:31;;;;;;;7.30;4.60;;;;;;;30.01;50.18;100228.14;1754183;80;25871;-77
2021/07/28 11:16:08;;;;;;;5.47;4.80;;;;;;;30.08;50.33;100219.38;1709568;81;25807;-77
2021/07/28 11:18:52;;;;;;;6.30;4.50;;;;;;;30.19;49.85;100213.20;1758867;81;25936;-76
2021/07/28 11:21:29;;;;;;;5.28;4.60;;;;;;;30.31;47.99;100220.86;1726128;81;27202;-77
2021/07/28 11:24:06;;;;;;;5.35;4.25;;;;;;;30.33;48.07;100217.19;1732901;80;26718;-78
2021/07/28 11:26:42;;;;;;;5.40;4.17;;;;;;;30.41;48.86;100208.89;1759011;80;25757;-78
2021/07/28 11:29:18;;;;;;;4.67;4.22;;;;;;;30.52;49.43;100208.57;1729018;82;25809;-79
2021/07/28 11:31:48;;;;;;;4.25;3.85;;;;;;;30.65;49.22;100206.98;1740240;80;26018;-77
2021/07/28 11:34:23;;;;;;;6.47;4.67;;;;;;;30.71;48.48;100196.57;1677995;81;27570;-77
2021/07/28 11:37:03;;;;;;;7.72;4.67;;;;;;;30.79;48.17;100194.34;1715382;81;25999;-77